createdAt,value
2019-04-29T00:01:02.104Z,64.70
2019-04-29T00:04:05.972Z,62.30
2019-04-29T00:07:09.981Z,63.53
2019-04-29T00:10:17.098Z,63.87
2019-04-29T00:13:21.042Z,64.20
2019-04-29T00:16:35.932Z,72.77
2019-04-29T00:19:58.928Z,67.53
2019-04-29T00:23:02.831Z,72.27
2019-04-29T00:26:06.795Z,72.10
2019-04-29T00:29:10.685Z,70.30
2019-04-29T00:32:14.533Z,74.63
2019-04-29T00:35:18.536Z,68.60
2019-04-29T00:38:46.232Z,68.03
2019-04-29T00:42:24.194Z,67.10
2019-04-29T00:45:28.186Z,58.83
2019-04-29T00:48:32.099Z,62.97
2019-04-29T00:51:36.099Z,57.93
2019-04-29T00:54:48.794Z,58.97
2019-04-29T00:57:52.627Z,57.57
2019-04-29T01:00:56.600Z,56.07
2019-04-29T01:04:00.531Z,54.10
2019-04-29T01:07:05.090Z,53.43
2019-04-29T01:10:09.363Z,54.97
2019-04-29T01:13:13.297Z,54.83
2019-04-29T01:16:17.227Z,57.03
2019-04-29T01:19:21.163Z,58.30
2019-04-29T01:22:25.338Z,54.07
2019-04-29T01:25:29.257Z,54.77
2019-04-29T01:28:42.669Z,57.23
2019-04-29T01:31:46.636Z,59.83
2019-04-29T01:34:53.086Z,59.57
2019-04-29T01:37:56.922Z,60.77
2019-04-29T01:41:07.296Z,60.03
2019-04-29T01:44:11.322Z,61.67
2019-04-29T01:47:15.219Z,64.20
2019-04-29T01:50:19.091Z,56.33
2019-04-29T01:53:22.928Z,54.10
2019-04-29T01:56:26.920Z,55.93
2019-04-29T01:59:30.857Z,49.80
2019-04-29T02:02:34.662Z,48.90
2019-04-29T02:05:38.501Z,48.70
2019-04-29T02:08:42.414Z,53.60
2019-04-29T02:11:46.267Z,53.67
2019-04-29T02:14:50.116Z,50.37
2019-04-29T02:17:54.013Z,52.27
2019-04-29T02:20:57.815Z,45.47
2019-04-29T02:24:10.104Z,46.50
2019-04-29T02:27:13.965Z,43.03
2019-04-29T02:30:41.106Z,37.23
2019-04-29T02:33:44.953Z,37.93
2019-04-29T02:36:48.795Z,40.67
2019-04-29T02:39:59.300Z,40.87
2019-04-29T02:43:09.415Z,42.93
2019-04-29T02:46:13.392Z,38.97
2019-04-29T02:49:17.305Z,33.70
2019-04-29T02:52:21.194Z,33.53
2019-04-29T02:55:32.284Z,38.17
2019-04-29T02:58:51.265Z,29.90
2019-04-29T03:02:17.419Z,28.33
2019-04-29T03:05:26.699Z,28.80
2019-04-29T03:08:30.610Z,29.37
2019-04-29T03:11:34.635Z,27.37
2019-04-29T03:14:38.916Z,29.10
2019-04-29T03:17:43.220Z,27.27
2019-04-29T03:21:06.138Z,28.07
2019-04-29T03:24:10.057Z,28.13
2019-04-29T03:27:13.885Z,27.90
2019-04-29T03:30:17.863Z,27.47
2019-04-29T03:33:21.672Z,28.00
2019-04-29T03:36:25.618Z,27.33
2019-04-29T03:39:29.509Z,28.73
2019-04-29T03:42:33.495Z,29.80
2019-04-29T03:45:37.438Z,27.27
2019-04-29T03:48:41.287Z,30.83
2019-04-29T03:51:45.190Z,34.07
2019-04-29T03:54:49.036Z,31.27
2019-04-29T03:57:52.930Z,30.77
2019-04-29T04:01:07.624Z,32.30
2019-04-29T04:04:17.659Z,34.27
2019-04-29T04:07:38.664Z,33.77
2019-04-29T04:10:42.545Z,34.93
2019-04-29T04:13:46.391Z,31.87
2019-04-29T04:17:09.262Z,32.93
2019-04-29T04:20:13.493Z,34.13
2019-04-29T04:23:17.332Z,32.10
2019-04-29T04:26:21.143Z,32.60
2019-04-29T04:29:24.980Z,31.17
2019-04-29T04:32:28.808Z,34.13
2019-04-29T04:35:32.711Z,38.10
2019-04-29T04:38:36.545Z,33.30
2019-04-29T04:41:40.351Z,35.17
2019-04-29T04:44:50.432Z,37.00
2019-04-29T04:47:54.239Z,34.67
2019-04-29T04:50:58.142Z,38.27
2019-04-29T04:54:01.950Z,34.43
2019-04-29T04:57:06.007Z,35.67
2019-04-29T05:00:19.996Z,32.77
2019-04-29T05:03:22.233Z,29.23
2019-04-29T05:06:26.042Z,23.23
2019-04-29T05:09:29.934Z,22.97
2019-04-29T05:12:33.758Z,19.43
2019-04-29T05:15:37.599Z,18.07
2019-04-29T05:18:41.421Z,19.27
2019-04-29T05:21:45.240Z,19.50
2019-04-29T05:24:49.048Z,16.43
2019-04-29T05:27:52.871Z,16.73
2019-04-29T05:30:56.662Z,16.60
2019-04-29T05:34:00.481Z,19.13
2019-04-29T05:37:11.412Z,17.10
2019-04-29T05:40:34.308Z,14.43
2019-04-29T05:43:57.190Z,16.53
2019-04-29T05:47:17.823Z,15.33
2019-04-29T05:50:27.974Z,16.47
2019-04-29T05:53:38.738Z,17.43
2019-04-29T05:56:42.642Z,16.57
2019-04-29T05:59:47.842Z,16.60
2019-04-29T06:02:51.968Z,19.10
2019-04-29T06:05:55.845Z,17.73
2019-04-29T06:08:59.674Z,17.93
2019-04-29T06:12:03.552Z,19.33
2019-04-29T06:15:08.535Z,22.27
2019-04-29T06:18:12.346Z,24.87
2019-04-29T06:21:16.223Z,24.30
2019-04-29T06:24:20.021Z,24.37
2019-04-29T06:27:23.852Z,26.53
2019-04-29T06:30:27.668Z,28.37
2019-04-29T06:33:31.480Z,27.37
2019-04-29T06:36:35.461Z,28.23
2019-04-29T06:39:39.274Z,29.13
2019-04-29T06:42:43.106Z,31.97
2019-04-29T06:45:46.983Z,32.23
2019-04-29T06:48:50.820Z,31.10
2019-04-29T06:51:54.635Z,35.30
2019-04-29T06:54:58.537Z,35.23
2019-04-29T06:58:02.420Z,39.37
2019-04-29T07:01:06.297Z,39.07
2019-04-29T07:04:10.137Z,36.83
2019-04-29T07:07:13.963Z,39.40
2019-04-29T07:10:21.277Z,44.90
2019-04-29T07:13:24.644Z,45.53
2019-04-29T07:16:31.931Z,46.00
2019-04-29T07:19:34.086Z,44.13
2019-04-29T07:22:37.892Z,48.47
2019-04-29T07:25:41.686Z,46.30
2019-04-29T07:28:48.776Z,48.30
2019-04-29T07:31:51.104Z,44.43
2019-04-29T07:34:54.933Z,41.80
2019-04-29T07:37:58.762Z,45.03
2019-04-29T07:41:02.572Z,44.10
2019-04-29T07:44:06.532Z,42.93
2019-04-29T07:47:10.341Z,42.03
2019-04-29T07:50:14.747Z,46.67
2019-04-29T07:53:21.917Z,43.60
2019-04-29T07:56:24.227Z,38.87
2019-04-29T07:59:28.068Z,45.60
2019-04-29T08:02:31.874Z,36.63
2019-04-29T08:05:36.286Z,39.73
2019-04-29T08:08:53.949Z,35.87
2019-04-29T08:11:47.980Z,36.83
2019-04-29T08:14:57.811Z,38.60
2019-04-29T08:18:06.469Z,35.37
2019-04-29T08:21:04.658Z,38.53
2019-04-29T08:24:11.630Z,36.37
2019-04-29T08:27:14.087Z,35.57
2019-04-29T08:30:18.400Z,33.73
2019-04-29T08:33:22.314Z,30.83
2019-04-29T08:36:26.139Z,37.00
2019-04-29T08:39:31.169Z,34.07
2019-04-29T08:42:41.391Z,30.33
2019-04-29T08:45:48.444Z,31.80
2019-04-29T08:48:52.261Z,29.77
2019-04-29T08:51:56.141Z,29.50
2019-04-29T08:54:59.965Z,37.87
2019-04-29T08:58:06.891Z,31.40
2019-04-29T09:01:09.541Z,30.07
2019-04-29T09:04:13.367Z,28.13
2019-04-29T09:07:21.836Z,29.03
2019-04-29T09:10:22.789Z,30.90
2019-04-29T09:13:26.687Z,28.00
2019-04-29T09:16:30.498Z,28.53
2019-04-29T09:19:34.402Z,32.00
2019-04-29T09:22:40.903Z,31.20
2019-04-29T09:26:03.100Z,31.53
2019-04-29T09:29:25.304Z,30.57
2019-04-29T09:32:29.125Z,34.83
2019-04-29T09:35:33.820Z,33.93
2019-04-29T09:38:38.743Z,33.30
2019-04-29T09:41:58.755Z,33.33
2019-04-29T09:45:09.258Z,37.50
2019-04-29T09:48:13.135Z,34.10
2019-04-29T09:51:18.245Z,35.43
2019-04-29T09:54:22.625Z,34.17
2019-04-29T09:57:26.473Z,36.03
2019-04-29T10:01:01.591Z,33.30
2019-04-29T10:04:39.659Z,31.47
2019-04-29T10:07:43.828Z,29.30
2019-04-29T10:10:47.716Z,34.37
2019-04-29T10:13:51.538Z,31.93
2019-04-29T10:17:17.373Z,33.07
2019-04-29T10:20:26.035Z,31.37
2019-04-29T10:23:29.862Z,36.30
2019-04-29T10:26:33.767Z,28.47
2019-04-29T10:29:38.444Z,33.40
2019-04-29T10:32:43.599Z,31.13
2019-04-29T10:35:47.453Z,25.43
2019-04-29T10:38:53.102Z,32.43
2019-04-29T10:41:58.805Z,31.97
2019-04-29T10:45:15.149Z,32.93
2019-04-29T10:48:26.274Z,36.43
2019-04-29T10:51:30.160Z,30.87
2019-04-29T10:54:34.686Z,34.17
2019-04-29T10:57:38.537Z,30.57
2019-04-29T11:01:30.696Z,41.83
2019-04-29T11:04:36.074Z,30.00
2019-04-29T11:07:41.079Z,30.60
2019-04-29T11:10:44.987Z,27.53
2019-04-29T11:13:50.628Z,28.37
2019-04-29T11:16:54.383Z,31.63
2019-04-29T11:19:58.270Z,26.83
2019-04-29T11:23:16.601Z,28.30
2019-04-29T11:26:32.226Z,20.90
2019-04-29T11:29:36.143Z,18.47
2019-04-29T11:32:44.949Z,16.90
2019-04-29T11:35:59.202Z,14.77
2019-04-29T11:39:01.750Z,16.67
2019-04-29T11:42:08.616Z,14.73
2019-04-29T11:45:13.681Z,12.40
2019-04-29T11:48:17.860Z,13.03
2019-04-29T11:51:48.421Z,24.13
2019-04-29T11:54:41.148Z,10.90
2019-04-29T11:58:03.982Z,10.27
2019-04-29T12:01:37.475Z,14.97
2019-04-29T12:04:37.824Z,8.77
2019-04-29T12:07:41.879Z,11.10
2019-04-29T12:10:51.802Z,9.03
2019-04-29T12:14:09.475Z,14.87
2019-04-29T12:17:20.639Z,14.27
2019-04-29T12:20:30.056Z,10.73
2019-04-29T12:23:33.934Z,10.53
2019-04-29T12:26:43.179Z,9.70
2019-04-29T12:29:43.599Z,14.27
2019-04-29T12:33:01.306Z,12.60
2019-04-29T12:36:06.494Z,20.23
2019-04-29T12:39:43.079Z,12.23
2019-04-29T12:43:05.086Z,14.13
2019-04-29T12:46:13.923Z,13.97
2019-04-29T12:49:17.747Z,13.03
2019-04-29T12:52:21.826Z,13.77
2019-04-29T12:55:44.183Z,15.00
2019-04-29T12:58:38.437Z,11.40
2019-04-29T13:01:59.547Z,11.07
2019-04-29T13:05:25.977Z,12.57
2019-04-29T13:08:33.540Z,11.63
2019-04-29T13:11:48.016Z,10.50
2019-04-29T13:15:02.536Z,11.17
2019-04-29T13:18:13.008Z,17.30
2019-04-29T13:21:10.832Z,13.83
2019-04-29T13:24:24.271Z,14.00
2019-04-29T13:27:24.854Z,10.90
2019-04-29T13:30:26.328Z,21.40
2019-04-29T13:33:30.240Z,9.67
2019-04-29T13:36:34.252Z,10.53
2019-04-29T13:39:40.538Z,13.83
2019-04-29T13:42:48.483Z,10.23
2019-04-29T13:45:56.042Z,10.03
2019-04-29T13:49:13.579Z,11.87
2019-04-29T13:52:16.531Z,9.67
2019-04-29T13:55:46.551Z,15.00
2019-04-29T13:58:27.030Z,10.30
2019-04-29T14:01:57.810Z,9.43
2019-04-29T14:04:55.881Z,10.50
2019-04-29T14:07:59.773Z,11.83
2019-04-29T14:11:03.756Z,13.83
2019-04-29T14:14:07.585Z,13.53
2019-04-29T14:17:25.314Z,8.20
2019-04-29T14:20:17.545Z,9.97
2019-04-29T14:23:21.451Z,8.53
2019-04-29T14:26:25.291Z,12.00
2019-04-29T14:29:30.332Z,7.27
2019-04-29T14:32:38.062Z,8.43
2019-04-29T14:35:59.614Z,9.57
2019-04-29T14:39:05.927Z,8.03
2019-04-29T14:42:30.189Z,7.50
2019-04-29T14:45:48.647Z,15.50
2019-04-29T14:49:04.302Z,11.77
2019-04-29T14:52:08.389Z,11.90
2019-04-29T14:55:14.792Z,5.67
2019-04-29T14:58:17.381Z,9.37
2019-04-29T15:01:27.324Z,6.87
2019-04-29T15:04:34.642Z,8.00
2019-04-29T15:07:38.513Z,9.87
2019-04-29T15:10:43.192Z,7.13
2019-04-29T15:13:49.035Z,5.17
2019-04-29T15:16:59.025Z,8.10
2019-04-29T15:20:11.570Z,9.10
2019-04-29T15:23:27.939Z,5.07
2019-04-29T15:26:21.068Z,5.27
2019-04-29T15:29:24.900Z,3.70
2019-04-29T15:32:28.813Z,10.73
2019-04-29T15:35:32.667Z,4.50
2019-04-29T15:38:36.539Z,6.50
2019-04-29T15:41:40.483Z,7.43
2019-04-29T15:44:44.517Z,5.27
2019-04-29T15:47:48.369Z,2.87
2019-04-29T15:50:52.203Z,6.17
2019-04-29T15:53:56.098Z,3.93
2019-04-29T15:57:03.656Z,3.03
2019-04-29T16:00:20.618Z,5.33
2019-04-29T16:03:16.833Z,3.33
2019-04-29T16:06:46.141Z,3.37
2019-04-29T16:10:07.857Z,3.00
2019-04-29T16:13:12.149Z,5.57
2019-04-29T16:16:16.039Z,2.80
2019-04-29T16:19:19.951Z,6.47
2019-04-29T16:22:23.786Z,5.57
2019-04-29T16:25:27.582Z,4.40
2019-04-29T16:28:36.548Z,3.17
2019-04-29T16:31:37.012Z,4.30
2019-04-29T16:34:44.663Z,5.37
2019-04-29T16:37:46.653Z,2.47
2019-04-29T16:40:58.192Z,3.73
2019-04-29T16:44:02.034Z,2.50
2019-04-29T16:47:13.127Z,2.93
2019-04-29T16:50:13.478Z,5.87
2019-04-29T16:53:17.396Z,7.37
2019-04-29T16:56:21.516Z,5.40
2019-04-29T16:59:25.310Z,5.03
2019-04-29T17:02:29.108Z,3.10
2019-04-29T17:05:32.919Z,5.70
2019-04-29T17:09:02.906Z,3.13
2019-04-29T17:12:01.814Z,4.00
2019-04-29T17:18:12.215Z,4.27
2019-04-29T17:21:16.044Z,4.10
2019-04-29T17:24:19.877Z,4.03
2019-04-29T17:27:35.091Z,3.10
2019-04-29T17:31:12.227Z,4.43
2019-04-29T17:34:54.806Z,3.47
2019-04-29T17:35:18.696Z,3.97
2019-04-29T17:37:30.937Z,2.93
2019-04-29T17:40:37.299Z,2.77
2019-04-29T17:43:52.196Z,5.20
2019-04-29T17:47:11.446Z,4.83
2019-04-29T17:50:32.774Z,4.03
2019-04-29T17:53:40.909Z,3.30
2019-04-29T17:57:10.207Z,3.77
2019-04-29T18:00:18.551Z,4.27
2019-04-29T18:03:41.404Z,4.03
2019-04-29T18:07:08.165Z,3.37
2019-04-29T18:10:17.659Z,2.17
2019-04-29T18:13:23.749Z,3.57
2019-04-29T18:16:30.455Z,2.13
2019-04-29T18:19:42.238Z,3.93
2019-04-29T18:23:00.195Z,5.30
2019-04-29T18:26:07.433Z,4.33
2019-04-29T18:29:11.509Z,4.53
2019-04-29T18:32:15.622Z,2.53
2019-04-29T18:35:19.589Z,3.07
2019-04-29T18:38:26.258Z,6.57
2019-04-29T18:41:28.971Z,3.50
2019-04-29T18:44:32.919Z,2.53
2019-04-29T18:47:38.773Z,3.37
2019-04-29T18:50:42.435Z,3.13
2019-04-29T18:53:47.184Z,3.03
2019-04-29T18:56:51.216Z,4.40
2019-04-29T18:59:55.140Z,4.93
2019-04-29T19:03:01.044Z,5.27
2019-04-29T19:06:10.264Z,5.30
2019-04-29T19:09:17.802Z,2.87
2019-04-29T19:12:16.889Z,3.67
2019-04-29T19:15:20.693Z,4.07
2019-04-29T19:18:25.477Z,3.10
2019-04-29T19:21:31.481Z,6.20
2019-04-29T19:24:36.587Z,7.47
2019-04-29T19:27:40.939Z,4.97
2019-04-29T19:30:45.203Z,8.33
2019-04-29T19:33:49.148Z,6.13
2019-04-29T19:36:57.992Z,3.00
2019-04-29T19:39:59.656Z,9.30
2019-04-29T19:43:03.488Z,4.57
2019-04-29T19:46:07.324Z,3.40
2019-04-29T19:49:11.168Z,3.17
2019-04-29T19:52:19.012Z,3.87
2019-04-29T19:55:20.652Z,4.77
2019-04-29T19:58:29.541Z,4.67
2019-04-29T20:01:32.240Z,4.93
2019-04-29T20:04:44.377Z,3.53
2019-04-29T20:07:50.732Z,4.33
2019-04-29T20:10:58.124Z,4.67
2019-04-29T20:14:04.441Z,4.07
2019-04-29T20:17:19.086Z,6.30
2019-04-29T20:20:35.040Z,5.70
2019-04-29T20:23:39.258Z,3.37
2019-04-29T20:26:44.167Z,4.07
2019-04-29T20:29:48.040Z,4.33
2019-04-29T20:32:52.021Z,4.80
2019-04-29T20:36:01.630Z,7.23
2019-04-29T20:39:01.610Z,5.27
2019-04-29T20:42:10.276Z,8.17
2019-04-29T20:45:11.749Z,8.93
2019-04-29T20:48:19.474Z,7.20
2019-04-29T20:51:23.353Z,5.20
2019-04-29T20:54:28.627Z,6.23
2019-04-29T20:57:32.513Z,6.73
2019-04-29T21:00:38.809Z,4.90
2019-04-29T21:03:48.449Z,5.17
2019-04-29T21:06:59.851Z,5.77
2019-04-29T21:09:55.774Z,8.60
2019-04-29T21:13:22.506Z,9.27
2019-04-29T21:16:30.869Z,6.07
2019-04-29T21:19:34.940Z,5.83
2019-04-29T21:22:38.864Z,6.47
2019-04-29T21:25:42.709Z,8.63
2019-04-29T21:28:47.085Z,8.20
2019-04-29T21:31:58.457Z,5.07
2019-04-29T21:35:05.812Z,5.87
2019-04-29T21:38:30.448Z,3.70
2019-04-29T21:41:45.916Z,4.03
2019-04-29T21:44:49.764Z,5.70
2019-04-29T21:47:54.623Z,8.20
2019-04-29T21:50:58.747Z,7.43
2019-04-29T21:54:02.636Z,4.77
2019-04-29T21:57:06.533Z,9.13
2019-04-29T22:00:11.162Z,6.63
2019-04-29T22:03:15.456Z,8.73
2019-04-29T22:06:19.655Z,6.33
2019-04-29T22:09:34.054Z,5.90
2019-04-29T22:12:29.025Z,11.33
2019-04-29T22:15:38.209Z,5.93
2019-04-29T22:18:38.543Z,4.53
2019-04-29T22:21:42.567Z,4.17
2019-04-29T22:24:46.404Z,3.20
2019-04-29T22:27:50.320Z,4.90
2019-04-29T22:30:55.150Z,5.20
2019-04-29T22:33:59.670Z,4.77
2019-04-29T22:37:05.377Z,4.60
2019-04-29T22:40:09.515Z,4.20
2019-04-29T22:43:29.116Z,3.77
2019-04-29T22:46:32.979Z,6.13
2019-04-29T22:49:36.881Z,4.00
2019-04-29T22:52:40.753Z,4.67
2019-04-29T22:55:45.248Z,4.27
2019-04-29T22:58:49.116Z,4.17
2019-04-29T23:01:52.899Z,4.27
2019-04-29T23:04:56.731Z,4.03
2019-04-29T23:08:01.471Z,4.80
2019-04-29T23:11:05.552Z,3.70
2019-04-29T23:14:10.195Z,6.77
2019-04-29T23:17:15.779Z,3.73
2019-04-29T23:20:37.425Z,6.03
2019-04-29T23:23:45.575Z,5.90
2019-04-29T23:26:49.394Z,5.07
2019-04-29T23:29:53.256Z,8.20
2019-04-29T23:32:57.397Z,7.43
2019-04-29T23:36:01.292Z,4.53
2019-04-29T23:39:06.300Z,6.47
2019-04-29T23:42:12.135Z,6.30
2019-04-29T23:45:20.897Z,5.87
2019-04-29T23:48:23.890Z,5.47
2019-04-29T23:51:33.766Z,4.83
2019-04-29T23:54:43.746Z,4.77
2019-04-29T23:58:02.936Z,6.63
